sensor_id;sensor_type;location;lat;lon;timestamp;pressure;altitude;pressure_sealevel;temperature;humidity
71770;BME280;66386;52.122;5.420;2023-04-19T00:00:06;102938.28;;;8.27;74.74
71770;BME280;66386;52.122;5.420;2023-04-19T00:02:34;102937.41;;;8.26;74.68
71770;BME280;66386;52.122;5.420;2023-04-19T00:05:01;102930.59;;;8.24;75.03
71770;BME280;66386;52.122;5.420;2023-04-19T00:07:28;102929.69;;;8.20;75.18
71770;BME280;66386;52.122;5.420;2023-04-19T00:09:54;102931.41;;;8.18;75.55
71770;BME280;66386;52.122;5.420;2023-04-19T00:12:21;102927.94;;;8.16;75.65
71770;BME280;66386;52.122;5.420;2023-04-19T00:14:47;102927.09;;;8.15;75.51
71770;BME280;66386;52.122;5.420;2023-04-19T00:17:14;102935.63;;;8.13;75.95
71770;BME280;66386;52.122;5.420;2023-04-19T00:19:40;102929.63;;;8.09;75.95
71770;BME280;66386;52.122;5.420;2023-04-19T00:22:07;102935.59;;;8.07;76.11
71770;BME280;66386;52.122;5.420;2023-04-19T00:24:34;102937.28;;;8.04;76.04
71770;BME280;66386;52.122;5.420;2023-04-19T00:27:00;102930.44;;;8.00;76.19
71770;BME280;66386;52.122;5.420;2023-04-19T00:29:27;102929.53;;;8.00;76.48
71770;BME280;66386;52.122;5.420;2023-04-19T00:31:54;102929.53;;;7.98;76.39
71770;BME280;66386;52.122;5.420;2023-04-19T00:34:20;102929.53;;;7.97;76.42
71770;BME280;66386;52.122;5.420;2023-04-19T00:36:47;102933.78;;;7.92;76.55
71770;BME280;66386;52.122;5.420;2023-04-19T00:39:13;102928.63;;;7.87;76.61
71770;BME280;66386;52.122;5.420;2023-04-19T00:41:40;102927.72;;;7.82;76.92
71770;BME280;66386;52.122;5.420;2023-04-19T00:44:07;102923.41;;;7.78;77.16
71770;BME280;66386;52.122;5.420;2023-04-19T00:46:36;102924.22;;;7.75;77.14
71770;BME280;66386;52.122;5.420;2023-04-19T00:49:03;102919.06;;;7.71;77.61
71770;BME280;66386;52.122;5.420;2023-04-19T00:51:29;102913.09;;;7.68;77.36
71770;BME280;66386;52.122;5.420;2023-04-19T00:53:57;102909.66;;;7.66;77.53
71770;BME280;66386;52.122;5.420;2023-04-19T00:56:25;102914.72;;;7.62;77.51
71770;BME280;66386;52.122;5.420;2023-04-19T00:58:53;102910.44;;;7.59;77.81
71770;BME280;66386;52.122;5.420;2023-04-19T01:01:19;102911.28;;;7.55;77.94
71770;BME280;66386;52.122;5.420;2023-04-19T01:03:46;102918.06;;;7.53;77.90
71770;BME280;66386;52.122;5.420;2023-04-19T01:06:13;102902.69;;;7.51;78.05
71770;BME280;66386;52.122;5.420;2023-04-19T01:08:40;102906.13;;;7.50;78.01
71770;BME280;66386;52.122;5.420;2023-04-19T01:11:06;102906.13;;;7.52;78.15
71770;BME280;66386;52.122;5.420;2023-04-19T01:13:35;102901.00;;;7.52;78.41
71770;BME280;66386;52.122;5.420;2023-04-19T01:16:02;102901.88;;;7.54;78.59
71770;BME280;66386;52.122;5.420;2023-04-19T01:18:28;102897.63;;;7.56;78.52
71770;BME280;66386;52.122;5.420;2023-04-19T01:21:00;102901.06;;;7.57;78.77
71770;BME280;66386;52.122;5.420;2023-04-19T01:23:27;102906.19;;;7.58;78.63
71770;BME280;66386;52.122;5.420;2023-04-19T01:25:53;102904.47;;;7.59;79.02
71770;BME280;66386;52.122;5.420;2023-04-19T01:28:20;102901.91;;;7.60;78.77
71770;BME280;66386;52.122;5.420;2023-04-19T01:30:46;102901.94;;;7.62;78.80
71770;BME280;66386;52.122;5.420;2023-04-19T01:33:16;102896.00;;;7.64;78.99
71770;BME280;66386;52.122;5.420;2023-04-19T01:35:42;102904.53;;;7.66;79.01
71770;BME280;66386;52.122;5.420;2023-04-19T01:38:09;102903.69;;;7.67;78.97
71770;BME280;66386;52.122;5.420;2023-04-19T01:40:35;102910.53;;;7.70;79.33
71770;BME280;66386;52.122;5.420;2023-04-19T01:43:02;102902.03;;;7.73;79.16
71770;BME280;66386;52.122;5.420;2023-04-19T01:45:28;102892.66;;;7.75;79.25
71770;BME280;66386;52.122;5.420;2023-04-19T01:47:55;102896.97;;;7.79;79.34
71770;BME280;66386;52.122;5.420;2023-04-19T01:50:21;102896.97;;;7.80;79.35
71770;BME280;66386;52.122;5.420;2023-04-19T01:52:48;102894.44;;;7.83;79.45
71770;BME280;66386;52.122;5.420;2023-04-19T01:55:15;102906.41;;;7.86;79.44
71770;BME280;66386;52.122;5.420;2023-04-19T01:57:41;102902.16;;;7.88;79.45
71770;BME280;66386;52.122;5.420;2023-04-19T02:00:09;102908.16;;;7.92;79.40
71770;BME280;66386;52.122;5.420;2023-04-19T02:02:36;102904.75;;;7.93;79.35
71770;BME280;66386;52.122;5.420;2023-04-19T02:05:05;102902.19;;;7.94;79.28
71770;BME280;66386;52.122;5.420;2023-04-19T02:07:32;102899.66;;;7.96;79.22
71770;BME280;66386;52.122;5.420;2023-04-19T02:09:58;102903.91;;;7.97;79.41
71770;BME280;66386;52.122;5.420;2023-04-19T02:12:26;102893.69;;;7.97;79.44
71770;BME280;66386;52.122;5.420;2023-04-19T02:14:56;102898.81;;;8.00;79.48
71770;BME280;66386;52.122;5.420;2023-04-19T02:17:23;102897.13;;;8.02;79.56
71770;BME280;66386;52.122;5.420;2023-04-19T02:19:50;102895.44;;;8.04;79.61
71770;BME280;66386;52.122;5.420;2023-04-19T02:22:17;102892.88;;;8.06;79.38
71770;BME280;66386;52.122;5.420;2023-04-19T02:24:44;102892.06;;;8.08;79.70
71770;BME280;66386;52.122;5.420;2023-04-19T02:27:11;102888.66;;;8.09;79.55
71770;BME280;66386;52.122;5.420;2023-04-19T02:29:37;102901.47;;;8.11;79.70
71770;BME280;66386;52.122;5.420;2023-04-19T02:32:04;102893.78;;;8.12;80.06
71770;BME280;66386;52.122;5.420;2023-04-19T02:34:32;102893.81;;;8.14;79.94
71770;BME280;66386;52.122;5.420;2023-04-19T02:37:00;102897.22;;;8.14;79.78
71770;BME280;66386;52.122;5.420;2023-04-19T02:39:26;102900.66;;;8.16;79.62
71770;BME280;66386;52.122;5.420;2023-04-19T02:41:54;102904.09;;;8.20;79.65
71770;BME280;66386;52.122;5.420;2023-04-19T02:44:20;102901.53;;;8.20;79.81
71770;BME280;66386;52.122;5.420;2023-04-19T02:46:51;102904.94;;;8.20;79.75
71770;BME280;66386;52.122;5.420;2023-04-19T02:49:18;102909.22;;;8.23;79.66
71770;BME280;66386;52.122;5.420;2023-04-19T02:51:45;102904.97;;;8.24;79.64
71770;BME280;66386;52.122;5.420;2023-04-19T02:54:12;102902.41;;;8.25;79.78
71770;BME280;66386;52.122;5.420;2023-04-19T02:56:38;102908.38;;;8.26;79.67
71770;BME280;66386;52.122;5.420;2023-04-19T02:59:05;102902.44;;;8.28;79.52
71770;BME280;66386;52.122;5.420;2023-04-19T03:01:31;102906.69;;;8.28;79.45
71770;BME280;66386;52.122;5.420;2023-04-19T03:03:58;102906.69;;;8.29;79.37
71770;BME280;66386;52.122;5.420;2023-04-19T03:06:25;102905.84;;;8.30;79.40
71770;BME280;66386;52.122;5.420;2023-04-19T03:08:51;102897.31;;;8.30;79.64
71770;BME280;66386;52.122;5.420;2023-04-19T03:11:18;102900.72;;;8.30;79.54
71770;BME280;66386;52.122;5.420;2023-04-19T03:13:44;102899.00;;;8.29;79.63
71770;BME280;66386;52.122;5.420;2023-04-19T03:16:10;102900.72;;;8.30;79.37
71770;BME280;66386;52.122;5.420;2023-04-19T03:18:37;102894.75;;;8.31;79.54
71770;BME280;66386;52.122;5.420;2023-04-19T03:21:04;102897.34;;;8.33;79.47
71770;BME280;66386;52.122;5.420;2023-04-19T03:23:30;102899.91;;;8.34;79.41
71770;BME280;66386;52.122;5.420;2023-04-19T03:25:57;102901.63;;;8.34;79.50
71770;BME280;66386;52.122;5.420;2023-04-19T03:28:23;102897.34;;;8.34;79.59
71770;BME280;66386;52.122;5.420;2023-04-19T03:30:50;102894.78;;;8.37;79.46
71770;BME280;66386;52.122;5.420;2023-04-19T03:33:16;102891.38;;;8.37;79.54
71770;BME280;66386;52.122;5.420;2023-04-19T03:35:43;102891.38;;;8.38;79.42
71770;BME280;66386;52.122;5.420;2023-04-19T03:38:09;102891.41;;;8.40;79.28
71770;BME280;66386;52.122;5.420;2023-04-19T03:40:37;102882.00;;;8.41;79.45
71770;BME280;66386;52.122;5.420;2023-04-19T03:43:04;102887.13;;;8.42;79.37
71770;BME280;66386;52.122;5.420;2023-04-19T03:45:30;102888.84;;;8.42;79.05
71770;BME280;66386;52.122;5.420;2023-04-19T03:47:56;102888.00;;;8.43;79.05
71770;BME280;66386;52.122;5.420;2023-04-19T03:50:25;102890.56;;;8.43;79.04
71770;BME280;66386;52.122;5.420;2023-04-19T03:52:51;102886.28;;;8.40;79.03
71770;BME280;66386;52.122;5.420;2023-04-19T03:55:19;102889.66;;;8.34;78.95
71770;BME280;66386;52.122;5.420;2023-04-19T03:57:45;102887.91;;;8.29;78.95
71770;BME280;66386;52.122;5.420;2023-04-19T04:00:12;102887.03;;;8.22;79.25
71770;BME280;66386;52.122;5.420;2023-04-19T04:02:38;102875.88;;;8.17;79.39
71770;BME280;66386;52.122;5.420;2023-04-19T04:05:05;102879.25;;;8.11;79.44
71770;BME280;66386;52.122;5.420;2023-04-19T04:07:32;102878.41;;;8.11;79.27
71770;BME280;66386;52.122;5.420;2023-04-19T04:09:58;102875.84;;;8.08;79.46
71770;BME280;66386;52.122;5.420;2023-04-19T04:12:25;102888.66;;;8.08;79.51
71770;BME280;66386;52.122;5.420;2023-04-19T04:14:52;102877.50;;;8.04;79.29
71770;BME280;66386;52.122;5.420;2023-04-19T04:17:18;102888.59;;;8.03;79.40
71770;BME280;66386;52.122;5.420;2023-04-19T04:19:44;102885.16;;;7.99;79.14
71770;BME280;66386;52.122;5.420;2023-04-19T04:22:11;102882.59;;;7.96;79.31
71770;BME280;66386;52.122;5.420;2023-04-19T04:24:38;102876.59;;;7.94;79.12
71770;BME280;66386;52.122;5.420;2023-04-19T04:27:07;102885.09;;;7.90;79.20
71770;BME280;66386;52.122;5.420;2023-04-19T04:29:36;102892.72;;;7.85;79.08
71770;BME280;66386;52.122;5.420;2023-04-19T04:32:05;102890.16;;;7.84;79.12
71770;BME280;66386;52.122;5.420;2023-04-19T04:34:33;102887.59;;;7.82;79.15
71770;BME280;66386;52.122;5.420;2023-04-19T04:37:01;102887.56;;;7.78;79.21
71770;BME280;66386;52.122;5.420;2023-04-19T04:39:28;102885.81;;;7.74;79.27
71770;BME280;66386;52.122;5.420;2023-04-19T04:41:55;102892.63;;;7.68;79.41
71770;BME280;66386;52.122;5.420;2023-04-19T04:44:23;102893.44;;;7.64;79.32
71770;BME280;66386;52.122;5.420;2023-04-19T04:46:50;102890.00;;;7.61;79.44
71770;BME280;66386;52.122;5.420;2023-04-19T04:49:16;102891.66;;;7.57;79.42
71770;BME280;66386;52.122;5.420;2023-04-19T04:51:42;102883.97;;;7.54;79.33
71770;BME280;66386;52.122;5.420;2023-04-19T04:54:09;102890.78;;;7.54;79.33
71770;BME280;66386;52.122;5.420;2023-04-19T04:56:35;102890.75;;;7.50;79.54
71770;BME280;66386;52.122;5.420;2023-04-19T04:59:02;102889.03;;;7.46;79.62
71770;BME280;66386;52.122;5.420;2023-04-19T05:01:29;102890.69;;;7.46;79.35
71770;BME280;66386;52.122;5.420;2023-04-19T05:03:55;102898.38;;;7.46;79.41
71770;BME280;66386;52.122;5.420;2023-04-19T05:06:22;102900.91;;;7.44;79.65
71770;BME280;66386;52.122;5.420;2023-04-19T05:08:49;102895.78;;;7.43;79.61
71770;BME280;66386;52.122;5.420;2023-04-19T05:11:15;102899.22;;;7.43;79.48
71770;BME280;66386;52.122;5.420;2023-04-19T05:13:42;102898.34;;;7.43;79.38
71770;BME280;66386;52.122;5.420;2023-04-19T05:16:08;102899.22;;;7.43;79.39
71770;BME280;66386;52.122;5.420;2023-04-19T05:18:35;102894.09;;;7.43;79.06
71770;BME280;66386;52.122;5.420;2023-04-19T05:21:01;102900.91;;;7.41;79.02
71770;BME280;66386;52.122;5.420;2023-04-19T05:23:28;102897.50;;;7.42;78.83
71770;BME280;66386;52.122;5.420;2023-04-19T05:25:54;102897.50;;;7.41;78.60
71770;BME280;66386;52.122;5.420;2023-04-19T05:28:21;102907.72;;;7.41;78.31
71770;BME280;66386;52.122;5.420;2023-04-19T05:30:47;102910.28;;;7.41;78.30
71770;BME280;66386;52.122;5.420;2023-04-19T05:33:14;102900.03;;;7.39;77.99
71770;BME280;66386;52.122;5.420;2023-04-19T05:35:40;102907.72;;;7.42;77.85
71770;BME280;66386;52.122;5.420;2023-04-19T05:38:06;102902.63;;;7.42;77.86
71770;BME280;66386;52.122;5.420;2023-04-19T05:40:33;102894.13;;;7.45;77.20
71770;BME280;66386;52.122;5.420;2023-04-19T05:43:00;102909.50;;;7.49;77.25
71770;BME280;66386;52.122;5.420;2023-04-19T05:45:27;102909.56;;;7.57;76.61
71770;BME280;66386;52.122;5.420;2023-04-19T05:47:53;102910.53;;;7.68;76.06
71770;BME280;66386;52.122;5.420;2023-04-19T05:50:20;102904.63;;;7.76;75.62
71770;BME280;66386;52.122;5.420;2023-04-19T05:52:46;102901.28;;;7.83;74.76
71770;BME280;66386;52.122;5.420;2023-04-19T05:55:13;102907.28;;;7.91;74.51
71770;BME280;66386;52.122;5.420;2023-04-19T05:57:39;102907.34;;;7.97;73.50
71770;BME280;66386;52.122;5.420;2023-04-19T06:00:06;102899.72;;;8.03;72.52
71770;BME280;66386;52.122;5.420;2023-04-19T06:02:35;102906.59;;;8.11;72.15
71770;BME280;66386;52.122;5.420;2023-04-19T06:05:02;102906.63;;;8.17;71.72
71770;BME280;66386;52.122;5.420;2023-04-19T06:07:35;102905.81;;;8.24;70.60
71770;BME280;66386;52.122;5.420;2023-04-19T06:10:08;102909.31;;;8.34;69.67
71770;BME280;66386;52.122;5.420;2023-04-19T06:12:35;102909.34;;;8.42;69.09
71770;BME280;66386;52.122;5.420;2023-04-19T06:15:01;102910.28;;;8.50;68.58
71770;BME280;66386;52.122;5.420;2023-04-19T06:17:28;102911.16;;;8.55;68.47
71770;BME280;66386;52.122;5.420;2023-04-19T06:19:57;102906.91;;;8.60;67.56
71770;BME280;66386;52.122;5.420;2023-04-19T06:22:24;102914.63;;;8.68;66.64
71770;BME280;66386;52.122;5.420;2023-04-19T06:24:50;102914.66;;;8.79;65.88
71770;BME280;66386;52.122;5.420;2023-04-19T06:27:17;102915.56;;;8.87;64.65
71770;BME280;66386;52.122;5.420;2023-04-19T06:29:43;102910.44;;;8.90;63.84
71770;BME280;66386;52.122;5.420;2023-04-19T06:32:09;102906.16;;;8.89;62.90
71770;BME280;66386;52.122;5.420;2023-04-19T06:34:39;102917.28;;;8.88;62.64
71770;BME280;66386;52.122;5.420;2023-04-19T06:37:05;102916.41;;;8.89;62.05
71770;BME280;66386;52.122;5.420;2023-04-19T06:39:32;102920.69;;;8.90;62.43
71770;BME280;66386;52.122;5.420;2023-04-19T06:41:58;102921.59;;;8.98;62.12
71770;BME280;66386;52.122;5.420;2023-04-19T06:44:25;102919.94;;;9.13;62.08
71770;BME280;66386;52.122;5.420;2023-04-19T06:46:52;102909.72;;;9.40;61.48
71770;BME280;66386;52.122;5.420;2023-04-19T06:49:18;102917.41;;;9.62;58.88
71770;BME280;66386;52.122;5.420;2023-04-19T06:51:44;102907.16;;;9.79;57.03
71770;BME280;66386;52.122;5.420;2023-04-19T06:54:11;102910.59;;;9.93;56.39
71770;BME280;66386;52.122;5.420;2023-04-19T06:56:41;102909.72;;;10.07;56.40
71770;BME280;66386;52.122;5.420;2023-04-19T06:59:17;102911.41;;;10.29;57.01
71770;BME280;66386;52.122;5.420;2023-04-19T07:01:49;102899.38;;;10.44;54.22
71770;BME280;66386;52.122;5.420;2023-04-19T07:04:16;102910.47;;;10.58;53.49
71770;BME280;66386;52.122;5.420;2023-04-19T07:06:47;102907.88;;;10.71;53.16
71770;BME280;66386;52.122;5.420;2023-04-19T07:09:14;102900.97;;;10.77;52.49
71770;BME280;66386;52.122;5.420;2023-04-19T07:11:42;102915.50;;;10.88;51.26
71770;BME280;66386;52.122;5.420;2023-04-19T07:14:09;102899.97;;;11.06;52.43
71770;BME280;66386;52.122;5.420;2023-04-19T07:16:36;102910.97;;;11.28;50.70
71770;BME280;66386;52.122;5.420;2023-04-19T07:19:03;102899.78;;;11.35;48.79
71770;BME280;66386;52.122;5.420;2023-04-19T07:21:29;102906.72;;;11.27;48.02
71770;BME280;66386;52.122;5.420;2023-04-19T07:23:58;102899.78;;;11.35;49.08
71770;BME280;66386;52.122;5.420;2023-04-19T07:26:25;102903.97;;;11.49;47.90
71770;BME280;66386;52.122;5.420;2023-04-19T07:28:52;102907.41;;;11.49;46.45
71770;BME280;66386;52.122;5.420;2023-04-19T07:31:19;102909.09;;;11.55;47.25
71770;BME280;66386;52.122;5.420;2023-04-19T07:33:46;102909.00;;;11.64;46.56
71770;BME280;66386;52.122;5.420;2023-04-19T07:36:13;102897.84;;;11.67;46.60
71770;BME280;66386;52.122;5.420;2023-04-19T07:38:39;102908.91;;;11.75;45.20
71770;BME280;66386;52.122;5.420;2023-04-19T07:41:06;102901.19;;;11.74;46.48
71770;BME280;66386;52.122;5.420;2023-04-19T07:43:32;102893.31;;;11.91;47.16
71770;BME280;66386;52.122;5.420;2023-04-19T07:45:59;102903.44;;;12.15;46.15
71770;BME280;66386;52.122;5.420;2023-04-19T07:48:26;102904.25;;;12.19;45.07
71770;BME280;66386;52.122;5.420;2023-04-19T07:50:52;102906.75;;;12.23;46.15
71770;BME280;66386;52.122;5.420;2023-04-19T07:53:19;102915.16;;;12.41;44.98
71770;BME280;66386;52.122;5.420;2023-04-19T07:55:45;102920.16;;;12.58;44.60
71770;BME280;66386;52.122;5.420;2023-04-19T07:58:12;102914.03;;;12.65;44.06
71770;BME280;66386;52.122;5.420;2023-04-19T08:00:39;102914.06;;;12.64;44.03
71770;BME280;66386;52.122;5.420;2023-04-19T08:03:05;102908.81;;;12.70;44.73
71770;BME280;66386;52.122;5.420;2023-04-19T08:05:33;102916.50;;;12.78;44.24
71770;BME280;66386;52.122;5.420;2023-04-19T08:07:59;102924.03;;;12.91;44.17
71770;BME280;66386;52.122;5.420;2023-04-19T08:10:26;102912.78;;;12.97;42.75
71770;BME280;66386;52.122;5.420;2023-04-19T08:12:54;102913.56;;;13.01;42.27
71770;BME280;66386;52.122;5.420;2023-04-19T08:15:32;102910.31;;;12.86;42.52
71770;BME280;66386;52.122;5.420;2023-04-19T08:18:02;102904.22;;;12.93;41.29
71770;BME280;66386;52.122;5.420;2023-04-19T08:20:31;102908.38;;;13.05;40.37
71770;BME280;66386;52.122;5.420;2023-04-19T08:22:58;102910.94;;;13.04;40.86
71770;BME280;66386;52.122;5.420;2023-04-19T08:25:32;102916.75;;;13.20;41.71
71770;BME280;66386;52.122;5.420;2023-04-19T08:28:00;102905.09;;;13.52;43.01
71770;BME280;66386;52.122;5.420;2023-04-19T08:30:26;102905.88;;;13.58;39.88
71770;BME280;66386;52.122;5.420;2023-04-19T08:32:53;102908.38;;;13.63;40.18
71770;BME280;66386;52.122;5.420;2023-04-19T08:35:22;102916.31;;;13.52;39.21
71770;BME280;66386;52.122;5.420;2023-04-19T08:37:50;102905.97;;;13.54;40.37
71770;BME280;66386;52.122;5.420;2023-04-19T08:40:17;102905.75;;;13.66;40.87
71770;BME280;66386;52.122;5.420;2023-04-19T08:42:43;102901.22;;;13.79;39.80
71770;BME280;66386;52.122;5.420;2023-04-19T08:45:11;102896.03;;;13.81;41.46
71770;BME280;66386;52.122;5.420;2023-04-19T08:47:55;102897.91;;;14.19;42.06
71770;BME280;66386;52.122;5.420;2023-04-19T08:50:27;102898.31;;;14.43;42.21
71770;BME280;66386;52.122;5.420;2023-04-19T08:52:58;102888.03;;;14.40;39.91
71770;BME280;66386;52.122;5.420;2023-04-19T08:55:46;102895.16;;;14.28;37.40
71770;BME280;66386;52.122;5.420;2023-04-19T08:58:34;102894.59;;;14.56;38.99
71770;BME280;66386;52.122;5.420;2023-04-19T09:01:07;102900.63;;;14.99;39.65
71770;BME280;66386;52.122;5.420;2023-04-19T09:03:43;102896.88;;;15.48;36.35
71770;BME280;66386;52.122;5.420;2023-04-19T09:06:26;102890.84;;;15.48;35.42
71770;BME280;66386;52.122;5.420;2023-04-19T09:09:13;102893.94;;;15.62;36.49
71770;BME280;66386;52.122;5.420;2023-04-19T09:11:59;102891.13;;;15.71;34.59
71770;BME280;66386;52.122;5.420;2023-04-19T09:14:26;102884.06;;;16.11;33.98
71770;BME280;66386;52.122;5.420;2023-04-19T09:17:12;102889.16;;;16.14;33.44
71770;BME280;66386;52.122;5.420;2023-04-19T09:19:46;102886.78;;;16.07;33.83
71770;BME280;66386;52.122;5.420;2023-04-19T09:22:14;102882.63;;;16.31;33.90
71770;BME280;66386;52.122;5.420;2023-04-19T09:24:41;102883.00;;;16.48;32.05
71770;BME280;66386;52.122;5.420;2023-04-19T09:27:10;102893.88;;;16.31;32.20
71770;BME280;66386;52.122;5.420;2023-04-19T09:29:37;102884.00;;;16.13;32.09
71770;BME280;66386;52.122;5.420;2023-04-19T09:32:04;102882.75;;;16.26;33.35
71770;BME280;66386;52.122;5.420;2023-04-19T09:34:31;102880.00;;;16.32;33.68
71770;BME280;66386;52.122;5.420;2023-04-19T09:37:10;102885.72;;;16.44;34.16
71770;BME280;66386;52.122;5.420;2023-04-19T09:39:53;102877.09;;;16.43;32.29
71770;BME280;66386;52.122;5.420;2023-04-19T09:42:20;102880.78;;;16.36;32.01
71770;BME280;66386;52.122;5.420;2023-04-19T09:45:07;102885.13;;;16.35;32.73
71770;BME280;66386;52.122;5.420;2023-04-19T09:47:36;102874.09;;;16.27;33.50
71770;BME280;66386;52.122;5.420;2023-04-19T09:50:04;102869.72;;;15.98;35.20
71770;BME280;66386;52.122;5.420;2023-04-19T09:52:48;102875.03;;;15.59;34.64
71770;BME280;66386;52.122;5.420;2023-04-19T09:55:16;102863.75;;;15.25;34.23
71770;BME280;66386;52.122;5.420;2023-04-19T09:57:53;102870.16;;;15.10;34.50
71770;BME280;66386;52.122;5.420;2023-04-19T10:00:21;102879.16;;;14.94;36.07
71770;BME280;66386;52.122;5.420;2023-04-19T10:02:54;102872.09;;;15.00;35.41
71770;BME280;66386;52.122;5.420;2023-04-19T10:05:24;102860.00;;;15.01;36.14
71770;BME280;66386;52.122;5.420;2023-04-19T10:07:51;102877.09;;;14.71;34.62
71770;BME280;66386;52.122;5.420;2023-04-19T10:10:25;102865.97;;;14.65;36.15
71770;BME280;66386;52.122;5.420;2023-04-19T10:13:11;102856.47;;;15.04;36.22
71770;BME280;66386;52.122;5.420;2023-04-19T10:15:46;102858.09;;;15.09;36.26
71770;BME280;66386;52.122;5.420;2023-04-19T10:18:20;102859.53;;;15.21;35.68
71770;BME280;66386;52.122;5.420;2023-04-19T10:20:56;102858.25;;;15.39;37.61
71770;BME280;66386;52.122;5.420;2023-04-19T10:23:28;102848.47;;;15.49;35.07
71770;BME280;66386;52.122;5.420;2023-04-19T10:25:56;102852.53;;;15.25;35.33
71770;BME280;66386;52.122;5.420;2023-04-19T10:28:24;102856.00;;;15.24;34.39
71770;BME280;66386;52.122;5.420;2023-04-19T10:30:58;102859.56;;;15.19;35.49
71770;BME280;66386;52.122;5.420;2023-04-19T10:33:29;102838.81;;;15.21;34.60
71770;BME280;66386;52.122;5.420;2023-04-19T10:35:58;102839.41;;;15.32;36.41
71770;BME280;66386;52.122;5.420;2023-04-19T10:38:41;102839.69;;;15.54;35.27
71770;BME280;66386;52.122;5.420;2023-04-19T10:41:14;102842.66;;;15.41;35.35
71770;BME280;66386;52.122;5.420;2023-04-19T10:48:59;102838.66;;;15.62;34.98
71770;BME280;66386;52.122;5.420;2023-04-19T10:53:58;102832.19;;;15.77;33.78
71770;BME280;66386;52.122;5.420;2023-04-19T11:04:02;102831.84;;;15.92;32.75
71770;BME280;66386;52.122;5.420;2023-04-19T11:06:29;102822.84;;;15.71;32.58
71770;BME280;66386;52.122;5.420;2023-04-19T11:08:56;102825.47;;;15.69;33.58
71770;BME280;66386;52.122;5.420;2023-04-19T11:11:23;102822.25;;;15.94;33.04
71770;BME280;66386;52.122;5.420;2023-04-19T11:13:55;102811.00;;;15.95;32.58
71770;BME280;66386;52.122;5.420;2023-04-19T11:16:23;102815.97;;;16.03;32.69
71770;BME280;66386;52.122;5.420;2023-04-19T11:19:07;102798.66;;;16.03;30.88
71770;BME280;66386;52.122;5.420;2023-04-19T11:21:39;102798.88;;;15.96;32.19
71770;BME280;66386;52.122;5.420;2023-04-19T11:24:09;102793.97;;;16.16;32.58
71770;BME280;66386;52.122;5.420;2023-04-19T11:26:36;102795.47;;;16.23;31.89
71770;BME280;66386;52.122;5.420;2023-04-19T11:29:03;102790.19;;;16.28;32.08
71770;BME280;66386;52.122;5.420;2023-04-19T11:31:31;102783.78;;;16.40;32.45
71770;BME280;66386;52.122;5.420;2023-04-19T11:34:01;102789.28;;;16.57;33.08
71770;BME280;66386;52.122;5.420;2023-04-19T11:36:30;102784.59;;;16.69;32.59
71770;BME280;66386;52.122;5.420;2023-04-19T11:38:57;102773.38;;;16.68;30.82
71770;BME280;66386;52.122;5.420;2023-04-19T11:41:23;102759.53;;;16.68;30.26
71770;BME280;66386;52.122;5.420;2023-04-19T11:43:50;102757.00;;;16.66;30.54
71770;BME280;66386;52.122;5.420;2023-04-19T11:46:17;102777.72;;;16.39;30.62
71770;BME280;66386;52.122;5.420;2023-04-19T11:48:51;102778.03;;;16.29;29.65
71770;BME280;66386;52.122;5.420;2023-04-19T11:51:21;102765.69;;;16.37;29.87
71770;BME280;66386;52.122;5.420;2023-04-19T11:53:48;102760.50;;;16.37;30.16
71770;BME280;66386;52.122;5.420;2023-04-19T11:56:15;102745.22;;;16.56;30.15
71770;BME280;66386;52.122;5.420;2023-04-19T11:58:44;102749.53;;;16.55;29.06
71770;BME280;66386;52.122;5.420;2023-04-19T12:01:17;102745.72;;;16.39;29.92
71770;BME280;66386;52.122;5.420;2023-04-19T12:03:49;102746.56;;;16.39;28.87
71770;BME280;66386;52.122;5.420;2023-04-19T12:06:23;102751.94;;;16.33;28.91
71770;BME280;66386;52.122;5.420;2023-04-19T12:08:52;102756.25;;;16.34;28.46
71770;BME280;66386;52.122;5.420;2023-04-19T12:11:41;102749.31;;;16.35;29.00
71770;BME280;66386;52.122;5.420;2023-04-19T12:14:12;102752.88;;;16.31;28.96
71770;BME280;66386;52.122;5.420;2023-04-19T12:16:39;102752.34;;;16.21;28.63
71770;BME280;66386;52.122;5.420;2023-04-19T12:19:11;102748.47;;;16.34;29.06
71770;BME280;66386;52.122;5.420;2023-04-19T12:21:41;102752.47;;;16.45;27.94
71770;BME280;66386;52.122;5.420;2023-04-19T12:24:08;102742.41;;;16.34;28.10
71770;BME280;66386;52.122;5.420;2023-04-19T12:26:35;102744.22;;;16.32;28.23
71770;BME280;66386;52.122;5.420;2023-04-19T12:29:02;102738.88;;;16.36;27.86
71770;BME280;66386;52.122;5.420;2023-04-19T12:31:31;102738.25;;;16.30;27.89
71770;BME280;66386;52.122;5.420;2023-04-19T12:33:59;102725.00;;;16.37;27.30
71770;BME280;66386;52.122;5.420;2023-04-19T12:36:25;102716.69;;;16.26;28.57
71770;BME280;66386;52.122;5.420;2023-04-19T12:38:52;102736.81;;;16.19;28.67
71770;BME280;66386;52.122;5.420;2023-04-19T12:41:18;102730.72;;;16.20;29.16
71770;BME280;66386;52.122;5.420;2023-04-19T12:43:44;102721.63;;;16.35;28.80
71770;BME280;66386;52.122;5.420;2023-04-19T12:46:11;102722.56;;;16.33;29.12
71770;BME280;66386;52.122;5.420;2023-04-19T12:48:37;102724.19;;;16.37;29.86
71770;BME280;66386;52.122;5.420;2023-04-19T12:51:04;102715.41;;;16.39;30.29
71770;BME280;66386;52.122;5.420;2023-04-19T12:53:31;102715.66;;;16.32;29.38
71770;BME280;66386;52.122;5.420;2023-04-19T12:55:58;102708.44;;;16.13;28.70
71770;BME280;66386;52.122;5.420;2023-04-19T12:58:25;102706.88;;;16.08;28.91
71770;BME280;66386;52.122;5.420;2023-04-19T13:00:53;102693.41;;;15.96;29.60
71770;BME280;66386;52.122;5.420;2023-04-19T13:03:20;102709.22;;;15.87;30.73
71770;BME280;66386;52.122;5.420;2023-04-19T13:05:47;102702.63;;;15.75;29.77
71770;BME280;66386;52.122;5.420;2023-04-19T13:08:14;102695.94;;;15.66;29.63
71770;BME280;66386;52.122;5.420;2023-04-19T13:10:41;102694.44;;;15.59;29.03
71770;BME280;66386;52.122;5.420;2023-04-19T13:13:07;102676.69;;;15.75;30.58
71770;BME280;66386;52.122;5.420;2023-04-19T13:15:34;102663.63;;;15.80;30.16